Impacts METAR Board
IDs:

KRWV - Caldwell Muni, TX, US

Updated at: 1700 UTC 01 Mar 2021
Potential Impact None Slight Moderate High
Time 01/05Z 01/06Z 01/07Z 01/08Z 01/09Z 01/10Z 01/11Z 01/12Z 01/13Z 01/14Z 01/15Z 01/16Z 01/17Z
Temp60 58 57 56 55 52 50 51 48 47 47 48 49
Dewpt52 52 52 53 49 46 46 44 45 45 45 46 47
Altim29.94 29.94 29.95 29.97 29.98 29.97 30.00 30.03 30.09 30.10 30.13 30.15 30.18
VIS10 10 10 10 10 10 5 10 10 7 10 10 10
CIG16 14 14 14 16 18 16 20 24 11 9 7 11
CoverOVCOVCOVCOVCOVCOVCOVCOVCOVCOVCOVCOVCOVC
FltCatMVFRMVFRMVFRMVFRMVFRMVFRMVFRMVFRMVFRMVFRIFRIFRMVFR
WX-------RA-RA---RA BR-----RA-RA-RA-RA
WDir36036036010103603603603503603602020
WSpd13 16 11 9 10 9 8 12 20 10 14 10 11
WGst18 22 21 19 -- -- -- 20 30 26 21 21 17
Raw hourly METARs
KRWV 010455Z AUTO 36013G18KT 10SM OVC016 15/11 A2994 RMK AO2 T01550113
KRWV 010555Z AUTO 36016G22KT 10SM OVC014 15/11 A2994 RMK AO2 LTG DSNT NE T01470111 10245 20146
KRWV 010655Z AUTO 36011G21KT 10SM OVC014 14/11 A2995 RMK AO2 T01410111
KRWV 010755Z AUTO 01009G19KT 10SM -RA OVC014 13/11 A2997 RMK AO2 T01350114
KRWV 010855Z AUTO 01010KT 10SM -RA OVC016 13/09 A2998 RMK AO2 LTG DSNT N T01280095
KRWV 010955Z AUTO 36009KT 10SM BKN018 OVC022 11/08 A2997 RMK AO2 T01130078
KRWV 011055Z AUTO 36008KT 5SM -RA BR OVC016 10/08 A3000 RMK AO2 LTG DSNT N P0006 T01020077
KRWV 011155Z AUTO 36012G20KT 10SM OVC020 11/07 A3003 RMK AO2 LTG DSNT N T01060069 10146 20100 60006 70006
KRWV 011255Z AUTO 35020G30KT 10SM SCT015 OVC024 09/07 A3009 RMK AO2 T00890071
KRWV 011355Z AUTO 36010G26KT 7SM -RA OVC011 08/07 A3010 RMK AO2 LTG DSNT W T00830070
KRWV 011455Z AUTO 36014G21KT 10SM -RA OVC009 08/07 A3013 RMK AO2 P0004 T00830073 60004
KRWV 011555Z AUTO 02010G21KT 10SM -RA OVC007 09/08 A3015 RMK AO2 P0007 T00880079
KRWV 011655Z AUTO 02011G17KT 10SM -RA OVC011 09/08 A3018 RMK AO2 T00940082



Page loaded:  17:24 UTC  |   09:24 AM Pacific  |   10:24 AM Mountain  |   11:24 AM Central  |   12:24 PM Eastern

 

ADVISORIES

FORECASTS

FORECASTS

OBSERVATIONS

USER TOOLS

ABOUT US